Aérodrome :
LOGIN :

S'inscrire | Disclaimer

   EN    FR    IT 

 










Légende :    VFR   VFR Marginal   IFR   IFR Intensif   IFR Très Intensif
Visi : 
Plafond : 
>= 8 km
>= 3000ft
5 à 8 km
1000 à 3000 ft
1500m à 5 km
500 à 1000 ft
800 à 1500m
200 à 500 ft
< 800m
< 200 ft
Symboles :   Orages  Brouillard  Fortes neiges  Fortes précipitations  Vent > 20 kt
SIGMETs :   Divers  Orages  Givrage  Turbulence  Onde Orograph.  Cendres Volcan.







- Altitude de l'aérodrome : 79 ft
- Code IATA : NSY


LICZ - Sigonella (Mil) Catania

DERNIER METAR :
  • 210155Z 26004KT 9999 BKN100 04/03 Q1015 RMK BKN VIS MIN 9999 WIND THR28 26004KT WIND THR10 27003KT A2997 BLU

METARs EXPIRÉS :
  • 210055Z 30006KT 9999 SCT080 06/04 Q1015 RMK SCT VIS MIN 9999 WIND THR28 29003KT WIND THR10 31005KT A2997 BLU
  • 202355Z 26006KT 9999 FEW080 04/03 Q1015 RMK FEW VIS MIN 9999 WIND THR28 24005KT WIND THR10 26005KT A2997 BLU

TAF TAF LICZ
Valide du 21 à 03h jusqu'au 21 à 12h UTC


210200Z 2103/2112 26005KT 9999 BKN100
TEMPO 2103/2107 8000 BR
BECMG 2105/2106 FEW025 BKN060
BECMG 2107/2108 VRB03KT
Pas de NOTAMs connus pour ce terrain.



MET'MAP, la Météo Aéronautique d'un coup d'oeil ! - Copyright ORBIFLY Décembre 2007 - Disclaimer

ORBIFLY MET'MAP TEAM :

Programmation & Développement : Alexandra Zaïnal
Conception & Développement : Baudouin d'Aumeries
Co-Programmation & Développement : Marc-Olivier Méhu
Soutien technique & logistique : Manuel Goepfert

Contact : metmap@orbifly.com




SOURCES & CREDITS :

   NOAA